createdAt,value
2023-04-17T00:00:36.191Z,12.77
2023-04-17T00:03:03.645Z,14.07
2023-04-17T00:05:32.044Z,17.30
2023-04-17T00:08:00.161Z,13.50
2023-04-17T00:10:27.499Z,14.88
2023-04-17T00:12:54.567Z,14.32
2023-04-17T00:15:21.718Z,13.45
2023-04-17T00:17:48.720Z,15.70
2023-04-17T00:20:15.977Z,15.60
2023-04-17T00:22:43.172Z,15.48
2023-04-17T00:25:15.132Z,13.18
2023-04-17T00:27:43.014Z,16.50
2023-04-17T00:30:10.742Z,14.10
2023-04-17T00:32:38.184Z,15.52
2023-04-17T00:35:05.658Z,14.32
2023-04-17T00:37:32.632Z,17.67
2023-04-17T00:39:59.598Z,15.60
2023-04-17T00:42:27.270Z,17.15
2023-04-17T00:44:54.352Z,17.00
2023-04-17T00:47:22.812Z,15.90
2023-04-17T00:49:51.263Z,15.43
2023-04-17T00:52:33.518Z,15.82
2023-04-17T00:55:00.851Z,16.80
2023-04-17T00:57:28.427Z,13.60
2023-04-17T00:59:57.801Z,16.08
2023-04-17T01:02:25.445Z,13.77
2023-04-17T01:04:52.602Z,20.33
2023-04-17T01:07:19.644Z,20.63
2023-04-17T01:09:46.675Z,21.08
2023-04-17T01:12:17.652Z,18.05
2023-04-17T01:14:44.943Z,15.70
2023-04-17T01:17:14.417Z,18.08
2023-04-17T01:19:41.929Z,21.25
2023-04-17T01:22:09.008Z,16.85
2023-04-17T01:24:37.031Z,19.52
2023-04-17T01:27:04.790Z,18.30
2023-04-17T01:29:31.837Z,15.82
2023-04-17T01:31:58.959Z,16.90
2023-04-17T01:34:26.076Z,17.98
2023-04-17T01:36:53.244Z,18.27
2023-04-17T01:39:20.647Z,16.20
2023-04-17T01:41:47.704Z,21.65
2023-04-17T01:44:14.881Z,18.02
2023-04-17T01:46:41.887Z,17.48
2023-04-17T01:49:09.154Z,20.30
2023-04-17T01:51:36.208Z,16.45
2023-04-17T01:54:03.449Z,16.88
2023-04-17T01:56:30.489Z,19.75
2023-04-17T01:58:57.620Z,17.85
2023-04-17T02:01:24.648Z,22.08
2023-04-17T02:03:51.925Z,20.55
2023-04-17T02:06:20.282Z,20.67
2023-04-17T02:08:47.259Z,19.42
2023-04-17T02:11:15.454Z,21.85
2023-04-17T02:13:42.523Z,20.85
2023-04-17T02:16:09.887Z,18.08
2023-04-17T02:18:37.114Z,16.20
2023-04-17T02:21:04.131Z,18.90
2023-04-17T02:23:31.181Z,18.55
2023-04-17T02:25:58.240Z,17.67
2023-04-17T02:28:25.231Z,17.48
2023-04-17T02:30:52.270Z,16.77
2023-04-17T02:33:19.375Z,21.25
2023-04-17T02:35:46.677Z,19.35
2023-04-17T02:38:13.831Z,19.35
2023-04-17T02:40:40.895Z,16.55
2023-04-17T02:43:07.901Z,17.40
2023-04-17T02:45:35.026Z,17.92
2023-04-17T02:48:02.810Z,17.77
2023-04-17T02:50:29.990Z,16.42
2023-04-17T02:52:57.051Z,17.92
2023-04-17T02:55:24.646Z,18.67
2023-04-17T02:57:51.626Z,17.00
2023-04-17T03:00:18.705Z,19.05
2023-04-17T03:02:46.679Z,19.70
2023-04-17T03:05:15.138Z,18.58
2023-04-17T03:07:42.574Z,21.15
2023-04-17T03:10:09.970Z,23.17
2023-04-17T03:12:37.466Z,16.70
2023-04-17T03:15:06.025Z,19.85
2023-04-17T03:17:34.113Z,21.58
2023-04-17T03:20:01.609Z,22.38
2023-04-17T03:22:29.792Z,18.60
2023-04-17T03:24:56.903Z,21.58
2023-04-17T03:27:24.565Z,20.48
2023-04-17T03:29:52.449Z,21.92
2023-04-17T03:32:19.554Z,20.70
2023-04-17T03:34:47.274Z,18.13
2023-04-17T03:37:14.340Z,17.05
2023-04-17T03:39:41.583Z,20.00
2023-04-17T03:42:12.132Z,20.40
2023-04-17T03:44:39.116Z,21.13
2023-04-17T03:47:06.135Z,24.42
2023-04-17T03:49:34.378Z,18.75
2023-04-17T03:52:03.772Z,24.85
2023-04-17T03:54:35.364Z,23.20
2023-04-17T03:57:03.362Z,24.02
2023-04-17T03:59:33.828Z,23.95
2023-04-17T04:02:01.417Z,23.73
2023-04-17T04:04:28.801Z,24.15
2023-04-17T04:06:57.945Z,25.48
2023-04-17T04:09:28.015Z,21.58
2023-04-17T04:11:55.172Z,24.00
2023-04-17T04:14:22.138Z,24.77
2023-04-17T04:16:49.591Z,23.33
2023-04-17T04:19:16.677Z,24.02
2023-04-17T04:21:45.195Z,22.15
2023-04-17T04:24:31.819Z,33.42
2023-04-17T04:27:04.793Z,21.13
2023-04-17T04:29:32.096Z,23.33
2023-04-17T04:32:00.088Z,24.13
2023-04-17T04:34:45.588Z,26.45
2023-04-17T04:37:15.782Z,19.70
2023-04-17T04:39:43.475Z,22.58
2023-04-17T04:42:10.658Z,18.75
2023-04-17T04:44:37.764Z,21.60
2023-04-17T04:47:04.933Z,25.33
2023-04-17T04:49:32.114Z,21.85
2023-04-17T04:52:00.748Z,21.10
2023-04-17T04:54:27.796Z,22.05
2023-04-17T04:57:13.251Z,24.75
2023-04-17T04:59:40.337Z,23.25
2023-04-17T05:02:07.448Z,18.65
2023-04-17T05:04:53.584Z,18.23
2023-04-17T05:07:20.816Z,22.55
2023-04-17T05:09:48.002Z,17.85
2023-04-17T05:12:15.069Z,23.73
2023-04-17T05:14:42.066Z,25.75
2023-04-17T05:17:09.079Z,18.73
2023-04-17T05:19:36.065Z,25.10
2023-04-17T05:22:03.387Z,19.67
2023-04-17T05:24:31.146Z,20.52
2023-04-17T05:26:58.343Z,18.42
2023-04-17T05:29:25.372Z,24.05
2023-04-17T05:31:52.670Z,17.00
2023-04-17T05:34:19.744Z,19.88
2023-04-17T05:36:46.866Z,22.73
2023-04-17T05:39:13.948Z,28.33
2023-04-17T05:41:41.036Z,17.75
2023-04-17T05:44:08.437Z,21.15
2023-04-17T05:46:35.470Z,19.80
2023-04-17T05:49:02.712Z,19.85
2023-04-17T05:51:32.348Z,16.05
2023-04-17T05:53:59.313Z,20.63
2023-04-17T05:56:26.287Z,18.50
2023-04-17T05:58:53.365Z,20.58
2023-04-17T06:01:22.681Z,17.95
2023-04-17T06:03:49.948Z,22.05
2023-04-17T06:06:17.328Z,20.27
2023-04-17T06:08:44.385Z,22.58
2023-04-17T06:11:11.537Z,18.10
2023-04-17T06:13:38.800Z,19.02
2023-04-17T06:16:06.250Z,19.73
2023-04-17T06:18:33.286Z,19.67
2023-04-17T06:21:01.113Z,18.75
2023-04-17T06:23:28.216Z,21.67
2023-04-17T06:25:55.297Z,23.98
2023-04-17T06:28:22.237Z,24.83
2023-04-17T06:30:49.286Z,27.77
2023-04-17T06:33:16.626Z,27.73
2023-04-17T06:35:43.622Z,24.17
2023-04-17T06:38:11.001Z,24.65
2023-04-17T06:40:39.200Z,22.40
2023-04-17T06:43:06.875Z,23.00
2023-04-17T06:45:34.628Z,21.38
2023-04-17T06:48:02.311Z,23.58
2023-04-17T06:50:29.972Z,19.73
2023-04-17T06:52:57.505Z,23.52
2023-04-17T06:55:25.089Z,22.65
2023-04-17T06:57:52.664Z,25.17
2023-04-17T07:00:20.967Z,21.73
2023-04-17T07:02:48.899Z,20.63
2023-04-17T07:05:16.959Z,19.38
2023-04-17T07:07:44.627Z,19.70
2023-04-17T07:10:12.789Z,19.77
2023-04-17T07:12:40.449Z,22.30
2023-04-17T07:15:09.008Z,22.67
2023-04-17T07:17:36.805Z,16.92
2023-04-17T07:20:05.983Z,21.67
2023-04-17T07:22:34.786Z,19.70
2023-04-17T07:25:02.409Z,20.50
2023-04-17T07:27:30.945Z,15.65
2023-04-17T07:29:58.552Z,24.38
2023-04-17T07:32:26.336Z,21.33
2023-04-17T07:34:53.928Z,21.08
2023-04-17T07:37:21.712Z,17.15
2023-04-17T07:39:53.249Z,21.80
2023-04-17T07:42:20.858Z,17.98
2023-04-17T07:44:49.233Z,20.27
2023-04-17T07:47:16.785Z,19.20
2023-04-17T07:49:49.287Z,18.45
2023-04-17T07:52:18.364Z,24.60
2023-04-17T07:54:45.950Z,18.30
2023-04-17T07:57:15.243Z,15.88
2023-04-17T07:59:43.120Z,15.10
2023-04-17T08:02:10.971Z,13.73
2023-04-17T08:04:40.581Z,10.38
2023-04-17T08:07:10.893Z,9.95
2023-04-17T08:09:39.192Z,6.90
2023-04-17T08:12:07.168Z,12.13
2023-04-17T08:14:34.822Z,9.95
2023-04-17T08:17:02.916Z,7.45
2023-04-17T08:19:30.650Z,7.30
2023-04-17T08:22:06.411Z,10.57
2023-04-17T08:24:34.169Z,7.30
2023-04-17T08:27:01.802Z,7.70
2023-04-17T08:29:29.424Z,9.43
2023-04-17T08:32:12.667Z,8.63
2023-04-17T08:34:41.746Z,9.18
2023-04-17T08:37:09.321Z,10.18
2023-04-17T08:39:36.889Z,10.48
2023-04-17T08:42:13.306Z,7.20
2023-04-17T08:44:44.347Z,7.55
2023-04-17T08:47:13.891Z,6.38
2023-04-17T08:49:44.137Z,10.88
2023-04-17T08:52:12.362Z,11.82
2023-04-17T08:54:39.912Z,11.98
2023-04-17T08:57:07.471Z,9.63
2023-04-17T08:59:35.090Z,6.82
2023-04-17T09:02:09.789Z,5.85
2023-04-17T09:04:43.236Z,10.43
2023-04-17T09:07:15.926Z,9.00
2023-04-17T09:09:55.213Z,6.97
2023-04-17T09:12:24.901Z,6.20
2023-04-17T09:14:52.972Z,4.68
2023-04-17T09:17:21.861Z,5.28
2023-04-17T09:20:18.905Z,5.43
2023-04-17T09:22:46.667Z,5.78
2023-04-17T09:25:23.407Z,8.10
2023-04-17T09:27:51.138Z,6.22
2023-04-17T09:30:18.666Z,7.68
2023-04-17T09:32:46.408Z,6.10
2023-04-17T09:35:27.912Z,6.10
2023-04-17T09:37:56.634Z,6.78
2023-04-17T09:40:25.567Z,6.25
2023-04-17T09:43:01.648Z,6.20
2023-04-17T09:45:37.088Z,6.25
2023-04-17T09:48:10.577Z,6.53
2023-04-17T09:50:39.134Z,7.47
2023-04-17T09:53:08.254Z,5.57
2023-04-17T09:55:38.398Z,5.35
2023-04-17T09:58:08.301Z,9.45
2023-04-17T10:00:37.121Z,9.07
2023-04-17T10:03:05.572Z,5.72
2023-04-17T10:05:33.309Z,9.02
2023-04-17T10:08:01.870Z,10.70
2023-04-17T10:10:33.796Z,7.05
2023-04-17T10:13:03.785Z,5.80
2023-04-17T10:15:31.921Z,7.90
2023-04-17T10:18:23.860Z,8.20
2023-04-17T10:20:54.006Z,7.03
2023-04-17T10:23:35.164Z,7.78
2023-04-17T10:26:35.220Z,7.20
2023-04-17T10:29:02.833Z,6.32
2023-04-17T10:32:18.485Z,6.20
2023-04-17T10:34:46.660Z,7.00
2023-04-17T10:37:17.352Z,8.50
2023-04-17T10:39:53.871Z,4.45
2023-04-17T10:42:23.057Z,4.35
2023-04-17T10:44:52.388Z,6.28
2023-04-17T10:47:23.307Z,5.63
2023-04-17T10:49:59.094Z,4.60
2023-04-17T10:52:32.519Z,4.22
2023-04-17T10:55:10.812Z,4.93
2023-04-17T10:58:04.939Z,6.85
2023-04-17T11:00:51.340Z,12.13
2023-04-17T11:03:22.684Z,14.77
2023-04-17T11:05:50.388Z,20.83
2023-04-17T11:08:17.955Z,4.93
2023-04-17T11:10:45.635Z,17.80
2023-04-17T11:13:13.470Z,10.25
2023-04-17T11:15:41.187Z,7.68
2023-04-17T11:18:08.769Z,10.15
2023-04-17T11:20:38.152Z,9.32
2023-04-17T11:23:07.525Z,8.88
2023-04-17T11:25:35.732Z,7.80
2023-04-17T11:28:06.231Z,13.50
2023-04-17T11:30:42.504Z,6.18
2023-04-17T11:33:10.517Z,7.07
2023-04-17T11:35:40.029Z,6.82
2023-04-17T11:38:18.041Z,7.00
2023-04-17T11:40:51.696Z,5.32
2023-04-17T11:43:21.294Z,7.25
2023-04-17T11:45:56.774Z,4.95
2023-04-17T11:48:29.300Z,5.75
2023-04-17T11:50:59.275Z,8.60
2023-04-17T11:53:27.281Z,5.60
2023-04-17T11:56:16.928Z,5.72
2023-04-17T11:58:54.456Z,5.03
2023-04-17T12:01:27.590Z,8.13
2023-04-17T12:03:59.323Z,8.48
2023-04-17T12:06:47.335Z,7.10
2023-04-17T12:09:22.017Z,6.00
2023-04-17T12:11:49.663Z,8.13
2023-04-17T12:14:17.193Z,4.65
2023-04-17T12:16:44.893Z,5.35
2023-04-17T12:19:16.880Z,7.32
2023-04-17T12:21:44.593Z,8.23
2023-04-17T12:24:12.390Z,5.50
2023-04-17T12:26:50.677Z,4.72
2023-04-17T12:29:22.023Z,7.45
2023-04-17T12:31:56.963Z,7.25
2023-04-17T12:34:26.572Z,6.80
2023-04-17T12:36:55.172Z,5.78
2023-04-17T12:39:22.738Z,6.68
2023-04-17T12:41:50.460Z,7.03
2023-04-17T12:44:18.009Z,7.97
2023-04-17T12:46:47.012Z,8.25
2023-04-17T12:49:14.825Z,6.18
2023-04-17T12:51:42.497Z,10.18
2023-04-17T12:54:10.231Z,7.60
2023-04-17T12:56:37.932Z,6.75
2023-04-17T12:59:05.744Z,7.30
2023-04-17T13:01:33.383Z,6.15
2023-04-17T13:04:01.292Z,6.05
2023-04-17T13:06:29.100Z,9.07
2023-04-17T13:08:56.703Z,10.68
2023-04-17T13:11:24.218Z,8.15
2023-04-17T13:13:51.750Z,8.27
2023-04-17T13:16:19.353Z,10.43
2023-04-17T13:18:46.920Z,10.25
2023-04-17T13:21:14.670Z,9.80
2023-04-17T13:23:42.484Z,9.93
2023-04-17T13:26:10.016Z,8.13
2023-04-17T13:28:37.707Z,10.98
2023-04-17T13:31:05.419Z,6.15
2023-04-17T13:33:33.067Z,6.78
2023-04-17T13:36:00.667Z,5.53
2023-04-17T13:38:28.377Z,7.30
2023-04-17T13:40:56.033Z,6.05
2023-04-17T13:43:23.743Z,6.60
2023-04-17T13:45:53.377Z,9.65
2023-04-17T13:48:22.533Z,6.70
2023-04-17T13:50:50.382Z,9.07
2023-04-17T13:53:18.035Z,6.72
2023-04-17T13:55:45.711Z,8.70
2023-04-17T13:58:13.555Z,13.05
2023-04-17T14:00:41.210Z,9.40
2023-04-17T14:03:09.082Z,9.40
2023-04-17T14:05:36.886Z,11.40
2023-04-17T14:08:04.584Z,15.75
2023-04-17T14:10:32.306Z,9.00
2023-04-17T14:13:00.048Z,8.82
2023-04-17T14:15:28.299Z,10.23
2023-04-17T14:17:57.154Z,5.32
2023-04-17T14:20:24.792Z,9.35
2023-04-17T14:22:54.595Z,7.05
2023-04-17T14:25:22.661Z,6.22
2023-04-17T14:27:50.483Z,4.55
2023-04-17T14:30:18.111Z,8.23
2023-04-17T14:32:45.750Z,11.80
2023-04-17T14:35:13.702Z,4.80
2023-04-17T14:37:42.593Z,8.02
2023-04-17T14:40:10.902Z,6.15
2023-04-17T14:42:51.292Z,6.55
2023-04-17T14:47:49.523Z,8.27
2023-04-17T14:50:17.339Z,7.45
2023-04-17T14:52:44.989Z,11.25
2023-04-17T14:55:13.148Z,8.80
2023-04-17T14:57:40.890Z,11.25
2023-04-17T15:00:09.245Z,10.88
2023-04-17T15:02:39.357Z,8.35
2023-04-17T15:05:07.783Z,10.75
2023-04-17T15:07:36.055Z,6.00
2023-04-17T15:10:04.418Z,8.93
2023-04-17T15:12:32.200Z,4.78
2023-04-17T15:14:59.799Z,6.53
2023-04-17T15:17:27.429Z,5.72
2023-04-17T15:19:57.648Z,3.78
2023-04-17T15:22:26.649Z,4.82
2023-04-17T15:24:54.422Z,7.03
2023-04-17T15:27:22.196Z,8.07
2023-04-17T15:29:49.776Z,5.30
2023-04-17T15:32:55.959Z,6.97
2023-04-17T15:35:23.476Z,7.43
2023-04-17T15:37:51.034Z,4.82
2023-04-17T15:40:18.729Z,5.45
2023-04-17T15:42:49.111Z,5.13
2023-04-17T15:45:19.418Z,7.25
2023-04-17T15:47:47.161Z,5.40
2023-04-17T15:50:14.742Z,4.85
2023-04-17T15:52:42.388Z,6.20
2023-04-17T15:55:10.626Z,6.20
2023-04-17T15:57:40.047Z,6.05
2023-04-17T16:00:09.242Z,5.80
2023-04-17T16:02:36.984Z,6.45
2023-04-17T16:06:11.427Z,8.40
2023-04-17T16:08:39.017Z,8.38
2023-04-17T16:11:06.603Z,5.78
2023-04-17T16:13:34.241Z,8.07
2023-04-17T16:16:01.914Z,8.10
2023-04-17T16:18:29.671Z,10.07
2023-04-17T16:20:57.340Z,8.05
2023-04-17T16:23:24.950Z,4.75
2023-04-17T16:25:58.229Z,8.30
2023-04-17T16:28:25.402Z,5.63
2023-04-17T16:30:52.377Z,11.95
2023-04-17T16:33:19.415Z,8.18
2023-04-17T16:35:46.647Z,6.25
2023-04-17T16:38:32.383Z,9.18
2023-04-17T16:41:02.065Z,4.65
2023-04-17T16:43:30.638Z,10.48
2023-04-17T16:45:58.491Z,7.93
2023-04-17T16:48:27.045Z,6.97
2023-04-17T16:50:54.222Z,9.43
2023-04-17T16:53:59.014Z,6.90
2023-04-17T16:56:26.133Z,9.30
2023-04-17T16:58:53.253Z,11.73
2023-04-17T17:01:20.721Z,60.22
2023-04-17T17:03:47.966Z,11.70
2023-04-17T17:06:15.040Z,8.45
2023-04-17T17:08:46.787Z,8.27
2023-04-17T17:11:15.156Z,6.55
2023-04-17T17:14:01.140Z,9.60
2023-04-17T17:16:28.266Z,5.68
2023-04-17T17:18:55.634Z,10.48
2023-04-17T17:21:22.727Z,9.63
2023-04-17T17:23:49.748Z,10.07
2023-04-17T17:26:17.799Z,9.57
2023-04-17T17:28:50.992Z,9.38
2023-04-17T17:31:18.668Z,12.20
2023-04-17T17:34:16.690Z,13.10
2023-04-17T17:36:51.680Z,9.77
2023-04-17T17:39:18.857Z,11.55
2023-04-17T17:41:47.353Z,9.45
2023-04-17T17:44:15.062Z,10.38
2023-04-17T17:46:42.406Z,10.07
2023-04-17T17:49:09.912Z,8.35
2023-04-17T17:51:37.038Z,8.85
2023-04-17T17:54:04.286Z,10.75
2023-04-17T17:56:31.370Z,7.10
2023-04-17T17:58:58.477Z,7.25
2023-04-17T18:01:25.694Z,8.82
2023-04-17T18:03:53.479Z,7.55
2023-04-17T18:06:21.371Z,9.07
2023-04-17T18:08:48.514Z,12.43
2023-04-17T18:11:15.656Z,11.40
2023-04-17T18:13:42.742Z,7.38
2023-04-17T18:16:10.219Z,8.23
2023-04-17T18:18:37.350Z,8.48
2023-04-17T18:21:08.156Z,10.40
2023-04-17T18:23:55.554Z,10.73
2023-04-17T18:26:22.743Z,8.52
2023-04-17T18:28:49.924Z,12.10
2023-04-17T18:31:17.228Z,15.80
2023-04-17T18:33:44.486Z,12.05
2023-04-17T18:36:11.776Z,10.32
2023-04-17T18:38:38.822Z,10.85
2023-04-17T18:41:05.865Z,10.35
2023-04-17T18:43:51.446Z,12.73
2023-04-17T18:46:18.760Z,11.13
2023-04-17T18:48:45.786Z,12.25
2023-04-17T18:51:14.920Z,11.93
2023-04-17T18:53:41.991Z,9.57
2023-04-17T18:56:10.897Z,12.07
2023-04-17T18:58:40.431Z,13.35
2023-04-17T19:01:10.469Z,11.10
2023-04-17T19:03:38.588Z,14.82
2023-04-17T19:06:06.861Z,15.25
2023-04-17T19:08:34.515Z,11.98
2023-04-17T19:11:02.031Z,11.98
2023-04-17T19:13:29.279Z,14.65
2023-04-17T19:15:56.389Z,15.00
2023-04-17T19:18:23.970Z,12.48
2023-04-17T19:20:51.037Z,15.32
2023-04-17T19:23:18.186Z,15.40
2023-04-17T19:25:45.281Z,18.92
2023-04-17T19:28:13.461Z,20.15
2023-04-17T19:30:40.668Z,16.30
2023-04-17T19:33:07.882Z,16.73
2023-04-17T19:35:34.987Z,12.60
2023-04-17T19:38:02.255Z,19.50
2023-04-17T19:40:29.512Z,16.95
2023-04-17T19:43:01.374Z,13.77
2023-04-17T19:45:28.976Z,13.93
2023-04-17T19:47:57.277Z,12.73
2023-04-17T19:50:27.228Z,11.18
2023-04-17T19:52:55.696Z,13.32
2023-04-17T19:55:22.751Z,18.50
2023-04-17T19:57:51.052Z,14.70
2023-04-17T20:00:18.602Z,15.60
2023-04-17T20:02:46.272Z,16.13
2023-04-17T20:05:13.442Z,16.05
2023-04-17T20:07:40.578Z,19.77
2023-04-17T20:10:08.330Z,11.90
2023-04-17T20:12:35.649Z,19.20
2023-04-17T20:15:02.908Z,16.00
2023-04-17T20:17:30.270Z,13.15
2023-04-17T20:19:57.297Z,20.42
2023-04-17T20:22:24.395Z,14.25
2023-04-17T20:24:51.475Z,13.80
2023-04-17T20:27:18.634Z,19.15
2023-04-17T20:29:45.686Z,13.95
2023-04-17T20:32:12.896Z,16.52
2023-04-17T20:34:40.277Z,25.95
2023-04-17T20:37:07.299Z,19.33
2023-04-17T20:39:34.314Z,15.43
2023-04-17T20:42:02.162Z,24.95
2023-04-17T20:44:29.187Z,17.10
2023-04-17T20:46:56.173Z,19.58
2023-04-17T20:49:23.197Z,10.57
2023-04-17T20:51:51.190Z,12.50
2023-04-17T20:54:18.359Z,14.93
2023-04-17T20:56:45.516Z,15.13
2023-04-17T20:59:12.551Z,21.15
2023-04-17T21:01:39.951Z,18.13
2023-04-17T21:04:07.178Z,20.27
2023-04-17T21:06:34.240Z,16.92
2023-04-17T21:09:01.358Z,14.93
2023-04-17T21:11:28.544Z,16.45
2023-04-17T21:13:55.824Z,15.23
2023-04-17T21:16:22.949Z,21.38
2023-04-17T21:18:50.033Z,15.63
2023-04-17T21:21:17.113Z,20.27
2023-04-17T21:23:44.132Z,21.65
2023-04-17T21:26:11.144Z,18.77
2023-04-17T21:28:38.316Z,16.35
2023-04-17T21:31:09.990Z,20.40
2023-04-17T21:33:37.396Z,20.73
2023-04-17T21:36:04.843Z,21.80
2023-04-17T21:38:31.932Z,22.48
2023-04-17T21:40:59.002Z,21.73
2023-04-17T21:43:26.054Z,23.40
2023-04-17T21:45:57.027Z,21.25
2023-04-17T21:48:24.194Z,20.80
2023-04-17T21:50:51.441Z,22.52
2023-04-17T21:53:18.633Z,20.80
2023-04-17T21:55:45.755Z,29.45
2023-04-17T21:58:12.794Z,19.60
2023-04-17T22:00:39.839Z,26.42
2023-04-17T22:03:06.989Z,21.40
2023-04-17T22:05:34.042Z,21.00
2023-04-17T22:08:01.637Z,23.08
2023-04-17T22:10:29.692Z,18.48
2023-04-17T22:12:57.017Z,19.15
2023-04-17T22:15:24.555Z,23.15
2023-04-17T22:17:51.667Z,23.98
2023-04-17T22:20:19.512Z,17.30
2023-04-17T22:22:47.618Z,25.75
2023-04-17T22:25:14.662Z,22.83
2023-04-17T22:27:41.783Z,27.70
2023-04-17T22:30:09.109Z,23.27
2023-04-17T22:32:36.472Z,22.08
2023-04-17T22:35:04.485Z,24.85
2023-04-17T22:37:31.572Z,20.98
2023-04-17T22:39:58.621Z,23.40
2023-04-17T22:42:25.878Z,17.60
2023-04-17T22:44:53.086Z,19.73
2023-04-17T22:47:21.810Z,22.23
2023-04-17T22:49:48.862Z,16.35
2023-04-17T22:52:16.077Z,23.98
2023-04-17T22:54:43.050Z,21.73
2023-04-17T22:57:11.389Z,22.35
2023-04-17T22:59:38.478Z,23.60
2023-04-17T23:02:05.760Z,24.67
2023-04-17T23:04:32.861Z,22.75
2023-04-17T23:06:59.879Z,24.40
2023-04-17T23:09:26.964Z,18.58
2023-04-17T23:11:53.952Z,19.67
2023-04-17T23:14:20.940Z,14.68
2023-04-17T23:16:47.989Z,16.25
2023-04-17T23:19:14.971Z,14.27
2023-04-17T23:21:42.283Z,17.30
2023-04-17T23:24:09.410Z,20.20
2023-04-17T23:26:36.416Z,20.48
2023-04-17T23:29:03.474Z,17.70
2023-04-17T23:31:30.573Z,19.88
2023-04-17T23:33:57.586Z,21.58
2023-04-17T23:36:24.916Z,16.30
2023-04-17T23:38:52.004Z,22.58
2023-04-17T23:41:19.182Z,19.55
2023-04-17T23:43:46.453Z,21.48
2023-04-17T23:46:13.471Z,24.80
2023-04-17T23:48:40.563Z,20.67
2023-04-17T23:51:07.595Z,23.35
2023-04-17T23:53:34.570Z,19.08
2023-04-17T23:56:02.146Z,25.05
2023-04-17T23:58:29.395Z,22.05
